sensor_id;sensor_type;location;lat;lon;timestamp;temperature;humidity
21171;DHT22;10743;52.160;20.910;2022-09-03T00:00:04;29.50;28.80
21171;DHT22;10743;52.160;20.910;2022-09-03T00:02:43;29.40;28.90
21171;DHT22;10743;52.160;20.910;2022-09-03T00:05:24;29.40;29.10
21171;DHT22;10743;52.160;20.910;2022-09-03T00:17:19;29.20;28.60
21171;DHT22;10743;52.160;20.910;2022-09-03T00:19:59;29.20;28.60
21171;DHT22;10743;52.160;20.910;2022-09-03T00:22:39;29.20;28.80
21171;DHT22;10743;52.160;20.910;2022-09-03T00:25:16;29.10;28.70
21171;DHT22;10743;52.160;20.910;2022-09-03T00:27:53;29.10;28.80
21171;DHT22;10743;52.160;20.910;2022-09-03T00:30:21;29.10;29.10
21171;DHT22;10743;52.160;20.910;2022-09-03T00:32:58;29.10;29.10
21171;DHT22;10743;52.160;20.910;2022-09-03T00:35:34;29.10;29.00
21171;DHT22;10743;52.160;20.910;2022-09-03T00:38:04;29.10;29.20
21171;DHT22;10743;52.160;20.910;2022-09-03T00:43:33;29.00;29.30
21171;DHT22;10743;52.160;20.910;2022-09-03T00:46:25;29.00;29.20
21171;DHT22;10743;52.160;20.910;2022-09-03T00:55:47;28.90;29.30
21171;DHT22;10743;52.160;20.910;2022-09-03T00:58:51;28.90;29.30
21171;DHT22;10743;52.160;20.910;2022-09-03T01:01:29;28.80;29.40
21171;DHT22;10743;52.160;20.910;2022-09-03T01:07:29;28.80;29.60
21171;DHT22;10743;52.160;20.910;2022-09-03T01:10:17;28.80;29.60
21171;DHT22;10743;52.160;20.910;2022-09-03T01:13:13;28.70;29.60
21171;DHT22;10743;52.160;20.910;2022-09-03T01:16:08;28.70;29.60
21171;DHT22;10743;52.160;20.910;2022-09-03T01:22:48;28.60;29.80
21171;DHT22;10743;52.160;20.910;2022-09-03T01:25:35;28.60;29.80
21171;DHT22;10743;52.160;20.910;2022-09-03T01:28:17;28.60;29.90
21171;DHT22;10743;52.160;20.910;2022-09-03T01:31:02;28.50;29.80
21171;DHT22;10743;52.160;20.910;2022-09-03T01:34:02;28.50;29.90
21171;DHT22;10743;52.160;20.910;2022-09-03T01:45:45;28.40;30.00
21171;DHT22;10743;52.160;20.910;2022-09-03T01:53:01;28.30;30.00
21171;DHT22;10743;52.160;20.910;2022-09-03T01:55:23;28.20;30.10
21171;DHT22;10743;52.160;20.910;2022-09-03T01:58:29;28.20;30.00
21171;DHT22;10743;52.160;20.910;2022-09-03T02:01:04;28.20;30.00
21171;DHT22;10743;52.160;20.910;2022-09-03T02:03:39;28.20;30.10
21171;DHT22;10743;52.160;20.910;2022-09-03T02:06:10;28.20;30.00
21171;DHT22;10743;52.160;20.910;2022-09-03T02:08:38;28.10;30.10
21171;DHT22;10743;52.160;20.910;2022-09-03T02:11:08;28.10;30.10
21171;DHT22;10743;52.160;20.910;2022-09-03T02:13:38;28.10;30.20
21171;DHT22;10743;52.160;20.910;2022-09-03T02:16:13;28.10;30.10
21171;DHT22;10743;52.160;20.910;2022-09-03T02:18:51;28.10;30.20
21171;DHT22;10743;52.160;20.910;2022-09-03T02:21:23;28.10;30.10
21171;DHT22;10743;52.160;20.910;2022-09-03T02:23:51;28.10;30.00
21171;DHT22;10743;52.160;20.910;2022-09-03T02:26:23;28.00;30.00
21171;DHT22;10743;52.160;20.910;2022-09-03T02:28:52;28.00;30.00
21171;DHT22;10743;52.160;20.910;2022-09-03T02:31:20;28.00;29.90
21171;DHT22;10743;52.160;20.910;2022-09-03T02:33:48;28.00;29.90
21171;DHT22;10743;52.160;20.910;2022-09-03T02:36:19;28.00;30.00
21171;DHT22;10743;52.160;20.910;2022-09-03T02:38:53;28.00;30.10
21171;DHT22;10743;52.160;20.910;2022-09-03T02:41:20;28.00;30.10
21171;DHT22;10743;52.160;20.910;2022-09-03T02:43:58;28.00;30.00
21171;DHT22;10743;52.160;20.910;2022-09-03T02:46:42;28.00;30.30
21171;DHT22;10743;52.160;20.910;2022-09-03T02:49:11;27.90;30.10
21171;DHT22;10743;52.160;20.910;2022-09-03T02:51:40;27.90;30.30
21171;DHT22;10743;52.160;20.910;2022-09-03T02:54:09;27.90;30.30
21171;DHT22;10743;52.160;20.910;2022-09-03T02:56:37;27.90;30.50
21171;DHT22;10743;52.160;20.910;2022-09-03T02:59:05;27.90;30.40
21171;DHT22;10743;52.160;20.910;2022-09-03T03:01:33;27.90;30.40
21171;DHT22;10743;52.160;20.910;2022-09-03T03:04:02;27.90;30.50
21171;DHT22;10743;52.160;20.910;2022-09-03T03:06:29;27.90;30.30
21171;DHT22;10743;52.160;20.910;2022-09-03T03:08:56;27.90;30.40
21171;DHT22;10743;52.160;20.910;2022-09-03T03:11:24;27.80;30.40
21171;DHT22;10743;52.160;20.910;2022-09-03T03:13:51;27.80;30.40
21171;DHT22;10743;52.160;20.910;2022-09-03T03:16:18;27.80;30.40
21171;DHT22;10743;52.160;20.910;2022-09-03T03:18:46;27.80;30.40
21171;DHT22;10743;52.160;20.910;2022-09-03T03:21:15;27.80;30.30
21171;DHT22;10743;52.160;20.910;2022-09-03T03:23:43;27.80;30.20
21171;DHT22;10743;52.160;20.910;2022-09-03T03:26:13;27.80;30.20
21171;DHT22;10743;52.160;20.910;2022-09-03T03:28:45;27.70;30.20
21171;DHT22;10743;52.160;20.910;2022-09-03T03:31:17;27.70;30.20
21171;DHT22;10743;52.160;20.910;2022-09-03T03:33:51;27.70;30.10
21171;DHT22;10743;52.160;20.910;2022-09-03T03:36:20;27.70;30.10
21171;DHT22;10743;52.160;20.910;2022-09-03T03:38:48;27.70;30.40
21171;DHT22;10743;52.160;20.910;2022-09-03T03:41:20;27.60;30.40
21171;DHT22;10743;52.160;20.910;2022-09-03T03:43:52;27.60;30.70
21171;DHT22;10743;52.160;20.910;2022-09-03T03:46:21;27.60;30.80
21171;DHT22;10743;52.160;20.910;2022-09-03T03:48:50;27.60;30.70
21171;DHT22;10743;52.160;20.910;2022-09-03T03:51:18;27.60;30.60
21171;DHT22;10743;52.160;20.910;2022-09-03T03:53:46;27.60;30.50
21171;DHT22;10743;52.160;20.910;2022-09-03T03:56:14;27.60;30.50
21171;DHT22;10743;52.160;20.910;2022-09-03T03:58:42;27.60;30.50
21171;DHT22;10743;52.160;20.910;2022-09-03T04:01:18;27.60;30.40
21171;DHT22;10743;52.160;20.910;2022-09-03T04:03:46;27.60;30.30
21171;DHT22;10743;52.160;20.910;2022-09-03T04:06:16;27.50;30.40
21171;DHT22;10743;52.160;20.910;2022-09-03T04:08:47;27.50;30.30
21171;DHT22;10743;52.160;20.910;2022-09-03T04:11:20;27.50;30.50
21171;DHT22;10743;52.160;20.910;2022-09-03T04:13:49;27.50;30.50
21171;DHT22;10743;52.160;20.910;2022-09-03T04:16:22;27.50;30.50
21171;DHT22;10743;52.160;20.910;2022-09-03T04:18:54;27.50;30.50
21171;DHT22;10743;52.160;20.910;2022-09-03T04:21:27;27.50;30.60
21171;DHT22;10743;52.160;20.910;2022-09-03T04:23:55;27.50;30.70
21171;DHT22;10743;52.160;20.910;2022-09-03T04:26:28;27.40;30.70
21171;DHT22;10743;52.160;20.910;2022-09-03T04:28:58;27.40;30.70
21171;DHT22;10743;52.160;20.910;2022-09-03T04:31:27;27.40;30.80
21171;DHT22;10743;52.160;20.910;2022-09-03T04:33:54;27.40;30.90
21171;DHT22;10743;52.160;20.910;2022-09-03T04:36:24;27.40;30.90
21171;DHT22;10743;52.160;20.910;2022-09-03T04:38:53;27.40;31.00
21171;DHT22;10743;52.160;20.910;2022-09-03T04:41:24;27.40;31.00
21171;DHT22;10743;52.160;20.910;2022-09-03T04:43:54;27.40;31.10
21171;DHT22;10743;52.160;20.910;2022-09-03T04:46:24;27.40;31.30
21171;DHT22;10743;52.160;20.910;2022-09-03T04:48:53;27.40;31.40
21171;DHT22;10743;52.160;20.910;2022-09-03T04:51:25;27.40;31.30
21171;DHT22;10743;52.160;20.910;2022-09-03T04:53:58;27.40;31.30
21171;DHT22;10743;52.160;20.910;2022-09-03T04:56:30;27.50;31.50
21171;DHT22;10743;52.160;20.910;2022-09-03T04:59:03;27.50;31.10
21171;DHT22;10743;52.160;20.910;2022-09-03T05:01:32;27.50;31.00
21171;DHT22;10743;52.160;20.910;2022-09-03T05:04:01;27.60;31.00
21171;DHT22;10743;52.160;20.910;2022-09-03T05:06:29;27.60;31.00
21171;DHT22;10743;52.160;20.910;2022-09-03T05:08:57;27.70;31.20
21171;DHT22;10743;52.160;20.910;2022-09-03T05:11:26;27.70;31.00
21171;DHT22;10743;52.160;20.910;2022-09-03T05:13:56;27.80;30.90
21171;DHT22;10743;52.160;20.910;2022-09-03T05:16:25;27.80;31.20
21171;DHT22;10743;52.160;20.910;2022-09-03T05:18:56;27.90;31.30
21171;DHT22;10743;52.160;20.910;2022-09-03T05:21:25;27.90;31.30
21171;DHT22;10743;52.160;20.910;2022-09-03T05:23:53;27.90;30.90
21171;DHT22;10743;52.160;20.910;2022-09-03T05:26:29;28.00;30.70
21171;DHT22;10743;52.160;20.910;2022-09-03T05:28:59;28.10;30.80
21171;DHT22;10743;52.160;20.910;2022-09-03T05:31:29;28.20;30.60
21171;DHT22;10743;52.160;20.910;2022-09-03T05:34:00;28.20;30.90
21171;DHT22;10743;52.160;20.910;2022-09-03T05:36:31;28.30;31.00
21171;DHT22;10743;52.160;20.910;2022-09-03T05:39:00;28.30;31.00
21171;DHT22;10743;52.160;20.910;2022-09-03T05:41:28;28.30;30.80
21171;DHT22;10743;52.160;20.910;2022-09-03T05:43:56;28.40;30.90
21171;DHT22;10743;52.160;20.910;2022-09-03T05:46:30;28.50;30.80
21171;DHT22;10743;52.160;20.910;2022-09-03T05:49:04;28.50;30.40
21171;DHT22;10743;52.160;20.910;2022-09-03T05:51:33;28.50;30.30
21171;DHT22;10743;52.160;20.910;2022-09-03T05:54:01;28.60;30.30
21171;DHT22;10743;52.160;20.910;2022-09-03T05:56:30;28.70;30.30
21171;DHT22;10743;52.160;20.910;2022-09-03T05:59:00;28.70;30.10
21171;DHT22;10743;52.160;20.910;2022-09-03T06:01:33;28.80;30.00
21171;DHT22;10743;52.160;20.910;2022-09-03T06:04:09;28.90;30.00
21171;DHT22;10743;52.160;20.910;2022-09-03T06:06:40;28.90;29.80
21171;DHT22;10743;52.160;20.910;2022-09-03T06:09:10;29.00;29.80
21171;DHT22;10743;52.160;20.910;2022-09-03T06:11:44;28.90;29.60
21171;DHT22;10743;52.160;20.910;2022-09-03T06:14:13;29.00;29.70
21171;DHT22;10743;52.160;20.910;2022-09-03T06:16:42;29.00;29.50
21171;DHT22;10743;52.160;20.910;2022-09-03T06:19:11;29.10;29.60
21171;DHT22;10743;52.160;20.910;2022-09-03T06:21:41;29.10;29.40
21171;DHT22;10743;52.160;20.910;2022-09-03T06:24:17;29.20;29.40
21171;DHT22;10743;52.160;20.910;2022-09-03T06:26:46;29.30;29.50
21171;DHT22;10743;52.160;20.910;2022-09-03T06:29:14;29.30;29.50
21171;DHT22;10743;52.160;20.910;2022-09-03T06:31:41;29.30;29.50
21171;DHT22;10743;52.160;20.910;2022-09-03T06:34:08;29.40;29.60
21171;DHT22;10743;52.160;20.910;2022-09-03T06:36:35;29.50;29.60
21171;DHT22;10743;52.160;20.910;2022-09-03T06:39:02;29.60;29.20
21171;DHT22;10743;52.160;20.910;2022-09-03T06:41:30;29.60;29.40
21171;DHT22;10743;52.160;20.910;2022-09-03T06:44:05;29.70;29.80
21171;DHT22;10743;52.160;20.910;2022-09-03T06:46:38;29.80;29.00
21171;DHT22;10743;52.160;20.910;2022-09-03T06:49:09;29.80;28.90
21171;DHT22;10743;52.160;20.910;2022-09-03T06:51:37;29.90;28.80
21171;DHT22;10743;52.160;20.910;2022-09-03T06:54:10;30.00;28.80
21171;DHT22;10743;52.160;20.910;2022-09-03T06:56:39;30.00;28.50
21171;DHT22;10743;52.160;20.910;2022-09-03T06:59:11;30.10;28.50
21171;DHT22;10743;52.160;20.910;2022-09-03T07:01:41;30.20;28.20
21171;DHT22;10743;52.160;20.910;2022-09-03T07:04:13;30.30;28.10
21171;DHT22;10743;52.160;20.910;2022-09-03T07:06:44;30.40;28.10
21171;DHT22;10743;52.160;20.910;2022-09-03T07:09:12;30.40;27.80
21171;DHT22;10743;52.160;20.910;2022-09-03T07:11:41;30.50;27.80
21171;DHT22;10743;52.160;20.910;2022-09-03T07:14:15;30.60;27.90
21171;DHT22;10743;52.160;20.910;2022-09-03T07:16:43;30.60;27.80
21171;DHT22;10743;52.160;20.910;2022-09-03T07:19:11;30.70;27.70
21171;DHT22;10743;52.160;20.910;2022-09-03T07:21:39;30.80;27.50
21171;DHT22;10743;52.160;20.910;2022-09-03T07:24:13;30.90;27.20
21171;DHT22;10743;52.160;20.910;2022-09-03T07:26:41;31.00;27.40
21171;DHT22;10743;52.160;20.910;2022-09-03T07:29:16;31.00;27.20
21171;DHT22;10743;52.160;20.910;2022-09-03T07:31:46;31.10;27.50
21171;DHT22;10743;52.160;20.910;2022-09-03T07:34:17;31.20;27.30
21171;DHT22;10743;52.160;20.910;2022-09-03T07:36:46;31.30;27.50
21171;DHT22;10743;52.160;20.910;2022-09-03T07:39:16;31.30;27.20
21171;DHT22;10743;52.160;20.910;2022-09-03T07:41:45;31.40;27.00
21171;DHT22;10743;52.160;20.910;2022-09-03T07:44:14;31.50;27.10
21171;DHT22;10743;52.160;20.910;2022-09-03T07:46:45;31.60;27.30
21171;DHT22;10743;52.160;20.910;2022-09-03T07:49:13;31.70;26.90
21171;DHT22;10743;52.160;20.910;2022-09-03T07:51:41;31.80;26.30
21171;DHT22;10743;52.160;20.910;2022-09-03T07:54:09;31.90;26.30
21171;DHT22;10743;52.160;20.910;2022-09-03T07:56:38;32.00;26.20
21171;DHT22;10743;52.160;20.910;2022-09-03T07:59:05;32.10;26.20
21171;DHT22;10743;52.160;20.910;2022-09-03T08:01:34;32.10;26.50
21171;DHT22;10743;52.160;20.910;2022-09-03T08:04:02;32.20;25.70
21171;DHT22;10743;52.160;20.910;2022-09-03T08:06:30;32.30;25.90
21171;DHT22;10743;52.160;20.910;2022-09-03T08:09:00;32.40;25.40
21171;DHT22;10743;52.160;20.910;2022-09-03T08:11:34;32.60;25.70
21171;DHT22;10743;52.160;20.910;2022-09-03T08:14:08;32.60;26.00
21171;DHT22;10743;52.160;20.910;2022-09-03T08:16:39;32.70;25.30
21171;DHT22;10743;52.160;20.910;2022-09-03T08:19:10;32.80;25.90
21171;DHT22;10743;52.160;20.910;2022-09-03T08:21:38;32.90;25.40
21171;DHT22;10743;52.160;20.910;2022-09-03T08:24:08;33.00;25.60
21171;DHT22;10743;52.160;20.910;2022-09-03T08:26:38;33.10;25.40
21171;DHT22;10743;52.160;20.910;2022-09-03T08:29:07;33.10;24.90
21171;DHT22;10743;52.160;20.910;2022-09-03T08:31:35;33.30;25.80
21171;DHT22;10743;52.160;20.910;2022-09-03T08:34:04;33.30;25.10
21171;DHT22;10743;52.160;20.910;2022-09-03T08:36:37;33.40;24.80
21171;DHT22;10743;52.160;20.910;2022-09-03T08:39:07;33.50;24.80
21171;DHT22;10743;52.160;20.910;2022-09-03T08:41:43;33.60;24.60
21171;DHT22;10743;52.160;20.910;2022-09-03T08:55:55;34.00;24.80
21171;DHT22;10743;52.160;20.910;2022-09-03T08:58:28;34.10;23.90
21171;DHT22;10743;52.160;20.910;2022-09-03T09:02:03;34.20;23.50
21171;DHT22;10743;52.160;20.910;2022-09-03T09:16:46;34.50;22.50
21171;DHT22;10743;52.160;20.910;2022-09-03T09:19:31;34.50;22.20
21171;DHT22;10743;52.160;20.910;2022-09-03T09:22:16;34.60;23.00
21171;DHT22;10743;52.160;20.910;2022-09-03T09:24:52;34.70;22.50
21171;DHT22;10743;52.160;20.910;2022-09-03T09:27:21;34.80;23.50
21171;DHT22;10743;52.160;20.910;2022-09-03T09:29:50;34.80;23.10
21171;DHT22;10743;52.160;20.910;2022-09-03T09:32:19;34.90;22.50
21171;DHT22;10743;52.160;20.910;2022-09-03T09:34:47;34.90;22.60
21171;DHT22;10743;52.160;20.910;2022-09-03T09:37:18;34.90;22.50
21171;DHT22;10743;52.160;20.910;2022-09-03T09:39:59;34.90;22.30
21171;DHT22;10743;52.160;20.910;2022-09-03T09:42:26;35.00;22.40
21171;DHT22;10743;52.160;20.910;2022-09-03T09:44:56;35.00;22.60
21171;DHT22;10743;52.160;20.910;2022-09-03T09:47:38;35.00;22.40
21171;DHT22;10743;52.160;20.910;2022-09-03T09:50:16;35.10;22.70
21171;DHT22;10743;52.160;20.910;2022-09-03T09:53:09;35.20;22.60
21171;DHT22;10743;52.160;20.910;2022-09-03T09:55:57;35.20;22.10
21171;DHT22;10743;52.160;20.910;2022-09-03T09:58:26;35.20;21.50
21171;DHT22;10743;52.160;20.910;2022-09-03T10:01:01;35.30;22.00
21171;DHT22;10743;52.160;20.910;2022-09-03T10:03:51;35.40;23.00
21171;DHT22;10743;52.160;20.910;2022-09-03T10:06:29;35.40;22.20
21171;DHT22;10743;52.160;20.910;2022-09-03T10:09:17;35.50;22.70
21171;DHT22;10743;52.160;20.910;2022-09-03T10:18:08;35.70;22.50
21171;DHT22;10743;52.160;20.910;2022-09-03T10:21:06;35.80;22.50
21171;DHT22;10743;52.160;20.910;2022-09-03T10:26:35;35.90;22.30
21171;DHT22;10743;52.160;20.910;2022-09-03T10:29:03;36.00;22.00
21171;DHT22;10743;52.160;20.910;2022-09-03T10:37:20;36.00;21.20
21171;DHT22;10743;52.160;20.910;2022-09-03T10:40:18;36.10;21.60
21171;DHT22;10743;52.160;20.910;2022-09-03T10:46:16;36.30;21.30
21171;DHT22;10743;52.160;20.910;2022-09-03T10:51:41;36.30;21.50
21171;DHT22;10743;52.160;20.910;2022-09-03T10:54:41;36.30;21.60
21171;DHT22;10743;52.160;20.910;2022-09-03T11:00:09;36.40;21.00
21171;DHT22;10743;52.160;20.910;2022-09-03T11:03:03;36.40;21.40
21171;DHT22;10743;52.160;20.910;2022-09-03T11:08:26;36.40;21.60
21171;DHT22;10743;52.160;20.910;2022-09-03T11:11:06;36.50;20.80
21171;DHT22;10743;52.160;20.910;2022-09-03T11:13:52;36.50;21.10
21171;DHT22;10743;52.160;20.910;2022-09-03T11:16:27;36.50;20.60
21171;DHT22;10743;52.160;20.910;2022-09-03T11:19:06;36.50;20.50
21171;DHT22;10743;52.160;20.910;2022-09-03T11:21:38;36.60;20.70
21171;DHT22;10743;52.160;20.910;2022-09-03T11:24:19;36.60;20.60
21171;DHT22;10743;52.160;20.910;2022-09-03T11:26:54;36.60;20.80
21171;DHT22;10743;52.160;20.910;2022-09-03T11:29:43;36.60;20.60
21171;DHT22;10743;52.160;20.910;2022-09-03T11:32:20;36.60;21.00
21171;DHT22;10743;52.160;20.910;2022-09-03T11:34:51;36.60;20.80
21171;DHT22;10743;52.160;20.910;2022-09-03T11:37:28;36.60;20.50
21171;DHT22;10743;52.160;20.910;2022-09-03T11:40:13;36.70;20.80
21171;DHT22;10743;52.160;20.910;2022-09-03T11:42:44;36.70;20.80
21171;DHT22;10743;52.160;20.910;2022-09-03T11:47:59;36.70;20.40
21171;DHT22;10743;52.160;20.910;2022-09-03T11:50:30;36.80;20.50
21171;DHT22;10743;52.160;20.910;2022-09-03T11:53:09;36.80;20.60
21171;DHT22;10743;52.160;20.910;2022-09-03T11:58:35;36.90;20.80
21171;DHT22;10743;52.160;20.910;2022-09-03T12:01:08;36.90;21.10
21171;DHT22;10743;52.160;20.910;2022-09-03T12:03:52;36.90;21.90
21171;DHT22;10743;52.160;20.910;2022-09-03T12:15:54;37.00;21.50
21171;DHT22;10743;52.160;20.910;2022-09-03T12:18:33;37.00;21.10
21171;DHT22;10743;52.160;20.910;2022-09-03T12:21:04;37.00;20.50
21171;DHT22;10743;52.160;20.910;2022-09-03T12:23:42;37.10;22.10
21171;DHT22;10743;52.160;20.910;2022-09-03T12:26:13;37.10;21.70
21171;DHT22;10743;52.160;20.910;2022-09-03T12:28:55;37.10;21.20
21171;DHT22;10743;52.160;20.910;2022-09-03T12:31:26;37.10;20.30
21171;DHT22;10743;52.160;20.910;2022-09-03T12:34:02;37.10;20.20
21171;DHT22;10743;52.160;20.910;2022-09-03T12:36:39;37.20;20.20
21171;DHT22;10743;52.160;20.910;2022-09-03T12:39:24;37.20;20.40
21171;DHT22;10743;52.160;20.910;2022-09-03T12:42:21;37.30;20.70
21171;DHT22;10743;52.160;20.910;2022-09-03T12:44:51;37.40;20.10
21171;DHT22;10743;52.160;20.910;2022-09-03T12:47:20;37.40;19.90
21171;DHT22;10743;52.160;20.910;2022-09-03T12:50:07;37.50;20.70
21171;DHT22;10743;52.160;20.910;2022-09-03T12:56:11;37.70;20.70
21171;DHT22;10743;52.160;20.910;2022-09-03T12:58:50;37.70;20.20
21171;DHT22;10743;52.160;20.910;2022-09-03T13:01:26;37.70;20.40
21171;DHT22;10743;52.160;20.910;2022-09-03T13:04:12;37.80;20.20
21171;DHT22;10743;52.160;20.910;2022-09-03T13:07:07;37.80;20.60
21171;DHT22;10743;52.160;20.910;2022-09-03T13:09:40;37.80;20.40
21171;DHT22;10743;52.160;20.910;2022-09-03T13:12:20;37.80;20.80
21171;DHT22;10743;52.160;20.910;2022-09-03T13:15:06;37.80;20.00
21171;DHT22;10743;52.160;20.910;2022-09-03T13:17:51;37.70;19.80
21171;DHT22;10743;52.160;20.910;2022-09-03T13:23:51;37.60;20.10
21171;DHT22;10743;52.160;20.910;2022-09-03T13:26:29;37.50;20.30
21171;DHT22;10743;52.160;20.910;2022-09-03T13:32:19;37.20;20.80
21171;DHT22;10743;52.160;20.910;2022-09-03T13:35:27;37.20;20.10
21171;DHT22;10743;52.160;20.910;2022-09-03T13:44:15;36.90;20.90
21171;DHT22;10743;52.160;20.910;2022-09-03T13:46:54;36.90;20.00
21171;DHT22;10743;52.160;20.910;2022-09-03T13:49:39;36.90;20.40
21171;DHT22;10743;52.160;20.910;2022-09-03T13:52:51;36.90;20.30
21171;DHT22;10743;52.160;20.910;2022-09-03T13:55:52;36.80;20.50
21171;DHT22;10743;52.160;20.910;2022-09-03T13:58:27;36.70;21.00
21171;DHT22;10743;52.160;20.910;2022-09-03T14:03:34;36.60;21.00
21171;DHT22;10743;52.160;20.910;2022-09-03T14:09:26;36.60;20.90
21171;DHT22;10743;52.160;20.910;2022-09-03T14:12:28;36.50;20.90
21171;DHT22;10743;52.160;20.910;2022-09-03T14:15:15;36.50;21.40
21171;DHT22;10743;52.160;20.910;2022-09-03T14:17:52;36.50;21.20
21171;DHT22;10743;52.160;20.910;2022-09-03T14:20:30;36.50;21.40
21171;DHT22;10743;52.160;20.910;2022-09-03T14:26:04;36.50;21.20
21171;DHT22;10743;52.160;20.910;2022-09-03T14:28:37;36.40;21.10
21171;DHT22;10743;52.160;20.910;2022-09-03T14:34:15;36.40;21.30
21171;DHT22;10743;52.160;20.910;2022-09-03T14:43:15;36.30;21.00
21171;DHT22;10743;52.160;20.910;2022-09-03T14:48:58;36.30;21.00
21171;DHT22;10743;52.160;20.910;2022-09-03T14:55:06;36.20;20.90
21171;DHT22;10743;52.160;20.910;2022-09-03T14:57:48;36.20;20.90
21171;DHT22;10743;52.160;20.910;2022-09-03T15:00:50;36.20;20.90
21171;DHT22;10743;52.160;20.910;2022-09-03T15:03:25;36.20;21.20
21171;DHT22;10743;52.160;20.910;2022-09-03T15:06:46;36.20;21.60
21171;DHT22;10743;52.160;20.910;2022-09-03T15:12:33;36.10;20.80
21171;DHT22;10743;52.160;20.910;2022-09-03T15:15:26;36.10;21.20
21171;DHT22;10743;52.160;20.910;2022-09-03T15:24:39;36.00;21.00
21171;DHT22;10743;52.160;20.910;2022-09-03T15:30:09;35.90;21.30
21171;DHT22;10743;52.160;20.910;2022-09-03T15:33:05;35.80;21.40
21171;DHT22;10743;52.160;20.910;2022-09-03T15:36:20;35.80;21.80
21171;DHT22;10743;52.160;20.910;2022-09-03T15:39:10;35.80;21.20
21171;DHT22;10743;52.160;20.910;2022-09-03T15:41:55;35.80;21.10
21171;DHT22;10743;52.160;20.910;2022-09-03T15:44:26;35.80;21.10
21171;DHT22;10743;52.160;20.910;2022-09-03T15:47:10;35.80;21.20
21171;DHT22;10743;52.160;20.910;2022-09-03T15:49:47;35.70;20.90
21171;DHT22;10743;52.160;20.910;2022-09-03T15:52:27;35.70;21.40
21171;DHT22;10743;52.160;20.910;2022-09-03T15:57:36;35.70;21.90
21171;DHT22;10743;52.160;20.910;2022-09-03T16:00:17;35.60;21.60
21171;DHT22;10743;52.160;20.910;2022-09-03T16:02:53;35.60;21.70
21171;DHT22;10743;52.160;20.910;2022-09-03T16:05:45;35.60;21.90
21171;DHT22;10743;52.160;20.910;2022-09-03T16:14:11;35.50;22.00
21171;DHT22;10743;52.160;20.910;2022-09-03T16:19:29;35.40;22.20
21171;DHT22;10743;52.160;20.910;2022-09-03T16:22:14;35.40;22.10
21171;DHT22;10743;52.160;20.910;2022-09-03T16:25:03;35.40;22.30
21171;DHT22;10743;52.160;20.910;2022-09-03T16:28:08;35.30;22.20
21171;DHT22;10743;52.160;20.910;2022-09-03T16:31:12;35.30;22.20
21171;DHT22;10743;52.160;20.910;2022-09-03T16:34:09;35.30;22.50
21171;DHT22;10743;52.160;20.910;2022-09-03T16:46:23;35.20;22.50
21171;DHT22;10743;52.160;20.910;2022-09-03T16:54:42;35.10;22.50
21171;DHT22;10743;52.160;20.910;2022-09-03T16:57:31;35.00;22.90
21171;DHT22;10743;52.160;20.910;2022-09-03T17:08:43;34.90;22.60
21171;DHT22;10743;52.160;20.910;2022-09-03T17:11:31;34.80;22.90
21171;DHT22;10743;52.160;20.910;2022-09-03T17:14:16;34.80;23.00
21171;DHT22;10743;52.160;20.910;2022-09-03T17:17:08;34.80;23.20
21171;DHT22;10743;52.160;20.910;2022-09-03T17:20:07;34.70;23.20
21171;DHT22;10743;52.160;20.910;2022-09-03T17:23:00;34.70;23.60
21171;DHT22;10743;52.160;20.910;2022-09-03T17:35:10;34.40;23.70
21171;DHT22;10743;52.160;20.910;2022-09-03T17:38:15;34.40;23.90
21171;DHT22;10743;52.160;20.910;2022-09-03T17:44:17;34.30;24.00
21171;DHT22;10743;52.160;20.910;2022-09-03T17:50:41;34.10;24.20
21171;DHT22;10743;52.160;20.910;2022-09-03T17:53:36;34.00;24.40
21171;DHT22;10743;52.160;20.910;2022-09-03T17:56:17;33.90;24.40
21171;DHT22;10743;52.160;20.910;2022-09-03T17:59:09;33.90;24.70
21171;DHT22;10743;52.160;20.910;2022-09-03T18:01:57;33.80;24.50
21171;DHT22;10743;52.160;20.910;2022-09-03T18:04:51;33.70;24.60
21171;DHT22;10743;52.160;20.910;2022-09-03T18:16:27;33.40;24.90
21171;DHT22;10743;52.160;20.910;2022-09-03T18:21:59;33.30;25.10
21171;DHT22;10743;52.160;20.910;2022-09-03T18:24:51;33.20;25.10
21171;DHT22;10743;52.160;20.910;2022-09-03T18:27:46;33.10;25.40
21171;DHT22;10743;52.160;20.910;2022-09-03T18:30:33;33.10;25.40
21171;DHT22;10743;52.160;20.910;2022-09-03T18:33:23;33.00;25.40
21171;DHT22;10743;52.160;20.910;2022-09-03T18:36:10;32.90;25.50
21171;DHT22;10743;52.160;20.910;2022-09-03T18:39:06;32.90;25.70
21171;DHT22;10743;52.160;20.910;2022-09-03T18:49:31;32.70;25.80
21171;DHT22;10743;52.160;20.910;2022-09-03T18:55:34;32.50;26.20
21171;DHT22;10743;52.160;20.910;2022-09-03T18:58:37;32.50;26.40
21171;DHT22;10743;52.160;20.910;2022-09-03T19:01:36;32.40;26.70
21171;DHT22;10743;52.160;20.910;2022-09-03T19:04:42;32.30;26.90
21171;DHT22;10743;52.160;20.910;2022-09-03T19:08:05;32.20;27.20
21171;DHT22;10743;52.160;20.910;2022-09-03T19:11:20;32.10;27.30
21171;DHT22;10743;52.160;20.910;2022-09-03T19:14:28;32.10;27.50
21171;DHT22;10743;52.160;20.910;2022-09-03T19:17:52;32.00;27.50
21171;DHT22;10743;52.160;20.910;2022-09-03T19:20:53;32.00;27.60
21171;DHT22;10743;52.160;20.910;2022-09-03T19:23:43;32.00;27.70
21171;DHT22;10743;52.160;20.910;2022-09-03T19:26:45;31.90;27.60
21171;DHT22;10743;52.160;20.910;2022-09-03T19:30:13;31.90;27.80
21171;DHT22;10743;52.160;20.910;2022-09-03T19:43:36;31.60;28.20
21171;DHT22;10743;52.160;20.910;2022-09-03T19:50:13;31.50;28.30
21171;DHT22;10743;52.160;20.910;2022-09-03T19:53:11;31.40;28.30
21171;DHT22;10743;52.160;20.910;2022-09-03T19:56:02;31.40;28.40
21171;DHT22;10743;52.160;20.910;2022-09-03T19:58:55;31.30;28.40
21171;DHT22;10743;52.160;20.910;2022-09-03T20:01:43;31.30;28.40
21171;DHT22;10743;52.160;20.910;2022-09-03T20:04:33;31.20;29.00
21171;DHT22;10743;52.160;20.910;2022-09-03T20:07:22;31.10;28.50
21171;DHT22;10743;52.160;20.910;2022-09-03T20:10:11;31.10;28.60
21171;DHT22;10743;52.160;20.910;2022-09-03T20:15:43;31.00;28.70
21171;DHT22;10743;52.160;20.910;2022-09-03T20:24:18;30.90;28.30
21171;DHT22;10743;52.160;20.910;2022-09-03T20:29:50;30.80;28.20
21171;DHT22;10743;52.160;20.910;2022-09-03T20:32:55;30.70;28.30
21171;DHT22;10743;52.160;20.910;2022-09-03T20:36:10;30.70;28.30
21171;DHT22;10743;52.160;20.910;2022-09-03T20:39:13;30.70;28.50
21171;DHT22;10743;52.160;20.910;2022-09-03T20:48:02;30.60;28.40